Flight Track Log - Related Links

Times and Time Zones

All times are in EST time to prevent confusion due to time zone crossing. See the N330CL flight status page for this flight to view local times or setup timezone preferences in your user account.

Time Position Orientation Groundspeed Altitude Reporting Facility
EST Latitude Longitude Course Direction KTS MPH feet Rate Location/Type
Thu 07:27:34 PM 34.4117 -119.8350 173° South 86 99 500  Level Los Angeles Center
Thu 07:28:04 PM 34.4006 -119.8333 173° South 90 104 1,000 989 Climbing Los Angeles Center
Thu 07:29:05 PM 34.3694 -119.8303 175° South 105 121 2,000 923 Climbing Los Angeles Center
Thu 07:29:09 PM 34.3681 -119.8292 147° Southeast 121 139 2,000 727 Level Los Angeles Center
Thu 07:30:11 PM 34.3364 -119.8239 172° South 117 135 2,800 774 Climbing Los Angeles Center
Thu 07:31:13 PM 34.3019 -119.8144 167° South 122 140 3,600 600 Climbing Los Angeles Center
Thu 07:32:01 PM 34.2706 -119.7989 158° South 144 166 3,900 286 Climbing Los Angeles Center
Thu 07:32:16 PM 34.2669 -119.8011 207° Southwest 123 142 3,900 716 Level Los Angeles Center
Thu 07:33:08 PM 34.2600 -119.7400 98° East 167 192 4,700 774 Climbing Los Angeles Center
Thu 07:33:18 PM 34.2600 -119.7422 270° West 159 183 4,700 327 Level Los Angeles Center
Thu 07:34:03 PM 34.2572 -119.6967 94° East 145 167 5,000 243 Climbing Los Angeles Center
Thu 07:34:32 PM 34.2536 -119.6694 99° East 156 180 5,000  Level Los Angeles Center
Thu 07:35:03 PM 34.2519 -119.6333 93° East 180 207 5,000  Level Los Angeles Center
Thu 07:35:35 PM 34.2514 -119.6075 91° East 170 196 5,000  Level Los Angeles Center
Thu 07:36:04 PM 34.2478 -119.5750 98° East 185 213 5,000  Level Los Angeles Center
Thu 07:36:37 PM 34.2469 -119.5469 92° East 178 205 5,000  Level Los Angeles Center
Thu 07:37:05 PM 34.2453 -119.5133 93° East 180 207 5,000  Level Los Angeles Center
Thu 07:37:39 PM 34.2408 -119.4878 102° East 179 206 5,000  Level Los Angeles Center
Thu 07:38:11 PM 34.2408 -119.4447 90° East 179 206 5,000  Level Los Angeles Center
Thu 07:38:41 PM 34.2397 -119.4275 94° East 179 206 5,000  Level Los Angeles Center
Thu 07:39:12 PM 34.2392 -119.3881 91° East 180 207 5,000  Level Los Angeles Center
Thu 07:39:43 PM 34.2383 -119.3556 92° East 178 205 5,000  Level Los Angeles Center
Thu 07:40:12 PM 34.2383 -119.3258 90° East 176 203 5,000  Level Los Angeles Center
Thu 07:40:45 PM 34.2381 -119.2958 91° East 178 205 5,000  Level Los Angeles Center
Thu 07:41:13 PM 34.2386 -119.2686 89° East 175 201 5,000  Level Los Angeles Center
Thu 07:41:47 PM 34.2394 -119.2358 88° East 178 205 5,000  Level Los Angeles Center
Thu 07:42:14 PM 34.2400 -119.2058 89° East 178 205 5,000  Level Los Angeles Center
Thu 07:42:49 PM 34.2400 -119.1778 90° East 176 203 5,000  Level Los Angeles Center
Thu 07:43:14 PM 34.2403 -119.1483 89° East 176 203 5,000  Level Los Angeles Center
Thu 07:43:52 PM 34.2411 -119.1183 88° East 176 203 5,000  Level Los Angeles Center
Thu 07:44:15 PM 34.2414 -119.0856 89° East 178 205 5,000 97 Level Los Angeles Center
Thu 07:44:54 PM 34.2406 -119.0589 92° East 177 204 5,100  Climbing Los Angeles Center
Thu 07:45:15 PM 34.2369 -119.0272 98° East 178 205 5,000  Descending Los Angeles Center
Thu 07:45:56 PM 34.2358 -118.9861 92° East 179 206 5,100 58 Climbing Los Angeles Center
Thu 07:46:58 PM 34.2328 -118.9281 94° East 177 204 5,100  Level Los Angeles Center
Thu 07:48:00 PM 34.2317 -118.8833 92° East 173 199 5,100  Level Los Angeles Center
Thu 07:49:02 PM 34.2300 -118.8100 92° East 179 206 5,100  Level Los Angeles Center
Thu 07:50:04 PM 34.2283 -118.7536 92° East 174 200 5,100  Level Los Angeles Center
Thu 07:51:07 PM 34.2267 -118.6975 92° East 170 196 5,100  Level Los Angeles Center
Thu 07:52:09 PM 34.2242 -118.6253 92° East 175 201 5,100  Level Los Angeles Center
Thu 07:53:05 PM 34.2167 -118.5667 99° East 176 203 5,100  Level Southern California TRACON
Thu 07:54:05 PM 34.2167 -118.5167 90° East 175 201 5,100  Level Southern California TRACON
Thu 07:55:05 PM 34.2000 -118.4500 107° East 173 199 5,100  Level Southern California TRACON
Thu 07:56:05 PM 34.2000 -118.4167 90° East 126 145 5,100 45 Level Southern California TRACON
Thu 07:57:19 PM 34.1850 -118.3708 112° Southeast 123 142 5,200 -310 Climbing Los Angeles Center
Thu 07:58:59 PM 34.1333 -118.3167 139° Southeast 140 161 4,200 -701 Descending Southern California TRACON
Thu 07:59:53 PM 34.1167 -118.3333 220° Southwest 139 160 3,400 -966 Descending Southern California TRACON
Thu 08:00:26 PM 34.0989 -118.3464 211° Southwest 140 161 2,800 -1,137 Descending Los Angeles Center
Thu 08:01:28 PM 34.0706 -118.3797 224° Southwest 141 162 1,600 -871 Descending Los Angeles Center
Thu 08:02:30 PM 34.0522 -118.4033 227° Southwest 110 127 1,000 -484 Descending Los Angeles Center
Thu 08:03:32 PM 34.0294 -118.4339 228° Southwest 101 116 600 -387 Descending Los Angeles Center
Thu 08:04:34 PM 34.0156 -118.4547 231° Southwest 94 108 200 -387 Descending Los Angeles Center

Login

Don't have an account? Register now (free) for customized features, flight alerts, and more!